createdAt,value
2017-07-25T00:00:01.697Z,17.45
2017-07-25T00:01:01.386Z,17.48
2017-07-25T00:02:01.645Z,17.51
2017-07-25T00:03:01.617Z,17.45
2017-07-25T00:04:01.609Z,17.49
2017-07-25T00:05:01.284Z,17.44
2017-07-25T00:06:00.959Z,17.4
2017-07-25T00:07:01.552Z,17.44
2017-07-25T00:08:01.539Z,17.42
2017-07-25T00:09:01.217Z,17.52
2017-07-25T00:10:01.199Z,17.44
2017-07-25T00:11:01.307Z,17.42
2017-07-25T00:12:01.526Z,17.48
2017-07-25T00:13:00.948Z,17.48
2017-07-25T00:14:01.489Z,17.48
2017-07-25T00:15:01.446Z,17.4
2017-07-25T00:16:01.107Z,17.46
2017-07-25T00:17:01.205Z,17.54
2017-07-25T00:18:01.419Z,17.54
2017-07-25T00:19:01.128Z,17.51
2017-07-25T00:20:01.375Z,17.49
2017-07-25T00:21:01.096Z,17.49
2017-07-25T00:22:01.308Z,17.45
2017-07-25T00:23:01.307Z,17.49
2017-07-25T00:24:00.987Z,17.51
2017-07-25T00:25:01.043Z,17.49
2017-07-25T00:26:00.945Z,17.4
2017-07-25T00:27:01.237Z,17.44
2017-07-25T00:28:01.226Z,17.48
2017-07-25T00:29:01.296Z,17.39
2017-07-25T00:30:01.258Z,17.44
2017-07-25T00:31:01.266Z,17.6
2017-07-25T00:32:00.849Z,17.46
2017-07-25T00:33:01.219Z,17.45
2017-07-25T00:34:00.819Z,17.34
2017-07-25T00:35:01.118Z,17.45
2017-07-25T00:36:00.779Z,17.39
2017-07-25T00:37:00.788Z,17.33
2017-07-25T00:38:01.156Z,17.37
2017-07-25T00:39:01.057Z,17.3
2017-07-25T00:40:00.819Z,17.31
2017-07-25T00:41:00.698Z,17.3
2017-07-25T00:42:00.676Z,17.33
2017-07-25T00:43:00.980Z,17.31
2017-07-25T00:44:00.711Z,17.36
2017-07-25T00:45:01.022Z,17.31
2017-07-25T00:46:00.628Z,17.33
2017-07-25T00:47:00.919Z,17.31
2017-07-25T00:48:00.986Z,17.29
2017-07-25T00:49:01.376Z,17.31
2017-07-25T00:50:00.855Z,17.33
2017-07-25T00:51:00.546Z,17.3
2017-07-25T00:52:00.837Z,17.37
2017-07-25T00:53:00.515Z,17.39
2017-07-25T00:54:00.483Z,17.44
2017-07-25T00:55:00.463Z,17.48
2017-07-25T00:56:00.776Z,17.44
2017-07-25T00:57:00.127Z,17.31
2017-07-25T00:58:00.439Z,17.31
2017-07-25T00:59:00.749Z,17.33
2017-07-25T01:00:00.398Z,17.24
2017-07-25T01:01:00.679Z,17.19
2017-07-25T01:02:00.058Z,17.18
2017-07-25T01:03:00.656Z,17.29
2017-07-25T01:04:00.029Z,17.18
2017-07-25T01:05:00.307Z,17.18
2017-07-25T01:05:59.979Z,17.31
2017-07-25T01:06:59.976Z,17.22
2017-07-25T01:08:00.257Z,17.21
2017-07-25T01:09:00.246Z,17.22
2017-07-25T01:10:00.218Z,17.18
2017-07-25T01:11:00.528Z,17.18
2017-07-25T01:12:00.197Z,17.16
2017-07-25T01:13:00.544Z,17.26
2017-07-25T01:14:00.168Z,17.24
2017-07-25T01:15:00.499Z,17.3
2017-07-25T01:16:00.434Z,17.31
2017-07-25T01:17:00.119Z,17.31
2017-07-25T01:18:00.112Z,17.3
2017-07-25T01:19:00.446Z,17.36
2017-07-25T01:20:00.387Z,17.34
2017-07-25T01:21:00.359Z,17.18
2017-07-25T01:22:00.041Z,17.22
2017-07-25T01:22:59.706Z,17.26
2017-07-25T01:24:00.299Z,17.24
2017-07-25T01:25:00.290Z,17.34
2017-07-25T01:26:00.277Z,17.26
2017-07-25T01:27:00.270Z,17.21
2017-07-25T01:28:00.259Z,17.21
2017-07-25T01:29:00.247Z,17.3
2017-07-25T01:30:00.216Z,17.3
2017-07-25T01:31:00.200Z,17.22
2017-07-25T01:32:00.175Z,17.22
2017-07-25T01:33:00.168Z,17.29
2017-07-25T01:34:00.147Z,17.31
2017-07-25T01:35:00.129Z,17.16
2017-07-25T01:36:00.127Z,17.22
2017-07-25T01:37:00.107Z,17.22
2017-07-25T01:38:00.099Z,17.22
2017-07-25T01:39:00.065Z,17.26
2017-07-25T01:40:00.061Z,17.22
2017-07-25T01:41:00.036Z,17.15
2017-07-25T01:42:00.023Z,17.09
2017-07-25T01:43:00.022Z,17.09
2017-07-25T01:43:59.985Z,17.09
2017-07-25T01:44:59.964Z,17.11
2017-07-25T01:45:59.956Z,17.18
2017-07-25T01:46:59.938Z,17.15
2017-07-25T01:47:59.918Z,17.15
2017-07-25T01:48:59.898Z,17.15
2017-07-25T01:49:59.885Z,17.06
2017-07-25T01:50:59.880Z,17.14
2017-07-25T01:51:59.543Z,17.12
2017-07-25T01:52:59.836Z,17.03
2017-07-25T01:53:59.807Z,17.08
2017-07-25T01:54:59.498Z,17.11
2017-07-25T01:55:59.278Z,17.09
2017-07-25T01:56:59.458Z,17.06
2017-07-25T01:57:59.750Z,17.08
2017-07-25T01:58:59.437Z,17.06
2017-07-25T01:59:59.438Z,17.05
2017-07-25T02:00:59.729Z,17.09
2017-07-25T02:01:59.687Z,17.16
2017-07-25T02:02:59.677Z,17.16
2017-07-25T02:03:59.658Z,17.06
2017-07-25T02:04:59.637Z,17.14
2017-07-25T02:05:59.618Z,17.11
2017-07-25T02:06:59.608Z,17.09
2017-07-25T02:07:59.578Z,17.15
2017-07-25T02:08:59.267Z,17.08
2017-07-25T02:09:59.246Z,17.08
2017-07-25T02:10:59.536Z,17.09
2017-07-25T02:11:59.518Z,17.12
2017-07-25T02:12:59.208Z,17.01
2017-07-25T02:13:59.506Z,17.01
2017-07-25T02:14:59.267Z,17.01
2017-07-25T02:15:58.850Z,17.05
2017-07-25T02:16:59.217Z,17.05
2017-07-25T02:17:59.177Z,17.01
2017-07-25T02:18:59.103Z,17.08
2017-07-25T02:19:59.087Z,17
2017-07-25T02:20:59.721Z,17.03
2017-07-25T02:21:59.058Z,17.05
2017-07-25T02:22:59.038Z,17.01
2017-07-25T02:23:59.327Z,17.03
2017-07-25T02:24:59.297Z,17.06
2017-07-25T02:25:58.987Z,16.94
2017-07-25T02:26:58.968Z,16.94
2017-07-25T02:27:58.949Z,16.98
2017-07-25T02:28:59.249Z,17.03
2017-07-25T02:29:59.230Z,16.91
2017-07-25T02:30:59.201Z,16.9
2017-07-25T02:31:59.208Z,16.85
2017-07-25T02:32:59.179Z,16.83
2017-07-25T02:33:58.869Z,16.9
2017-07-25T02:34:59.198Z,16.9
2017-07-25T02:35:58.821Z,16.82
2017-07-25T02:36:59.109Z,16.89
2017-07-25T02:37:59.092Z,16.96
2017-07-25T02:38:59.070Z,16.85
2017-07-25T02:39:59.068Z,16.85
2017-07-25T02:40:59.057Z,16.9
2017-07-25T02:41:59.041Z,16.83
2017-07-25T02:42:58.725Z,16.85
2017-07-25T02:43:58.712Z,16.82
2017-07-25T02:44:58.990Z,16.83
2017-07-25T02:45:58.678Z,16.83
2017-07-25T02:46:58.639Z,16.87
2017-07-25T02:47:58.310Z,16.91
2017-07-25T02:48:59.029Z,16.89
2017-07-25T02:49:58.279Z,16.94
2017-07-25T02:50:58.880Z,16.91
2017-07-25T02:51:58.875Z,16.96
2017-07-25T02:52:58.848Z,16.9
2017-07-25T02:53:58.827Z,16.94
2017-07-25T02:54:58.209Z,16.94
2017-07-25T02:55:58.809Z,16.9
2017-07-25T02:56:58.938Z,16.93
2017-07-25T02:57:58.805Z,16.9
2017-07-25T02:58:58.768Z,16.89
2017-07-25T02:59:58.739Z,16.91
2017-07-25T03:00:58.408Z,16.96
2017-07-25T03:01:58.398Z,16.97
2017-07-25T03:02:58.380Z,16.93
2017-07-25T03:03:58.358Z,16.93
2017-07-25T03:04:58.354Z,16.94
2017-07-25T03:05:58.660Z,16.96
2017-07-25T03:06:58.617Z,16.91
2017-07-25T03:07:58.687Z,16.94
2017-07-25T03:08:58.599Z,16.93
2017-07-25T03:09:58.254Z,16.96
2017-07-25T03:10:58.546Z,16.98
2017-07-25T03:11:57.925Z,16.93
2017-07-25T03:12:58.218Z,16.91
2017-07-25T03:13:58.208Z,16.94
2017-07-25T03:14:58.507Z,16.93
2017-07-25T03:15:58.501Z,16.94
2017-07-25T03:16:58.458Z,16.9
2017-07-25T03:17:58.439Z,16.97
2017-07-25T03:18:58.417Z,16.93
2017-07-25T03:19:58.103Z,16.9
2017-07-25T03:20:58.408Z,16.93
2017-07-25T03:21:58.076Z,16.93
2017-07-25T03:22:58.053Z,16.93
2017-07-25T03:23:58.030Z,16.94
2017-07-25T03:24:58.032Z,16.93
2017-07-25T03:25:58.000Z,16.93
2017-07-25T03:26:57.991Z,16.93
2017-07-25T03:27:57.980Z,16.94
2017-07-25T03:28:57.961Z,16.94
2017-07-25T03:29:57.927Z,16.93
2017-07-25T03:30:57.919Z,16.94
2017-07-25T03:31:57.894Z,16.91
2017-07-25T03:32:57.893Z,16.94
2017-07-25T03:33:58.168Z,16.94
2017-07-25T03:34:57.848Z,16.94
2017-07-25T03:35:58.248Z,16.97
2017-07-25T03:36:58.127Z,16.96
2017-07-25T03:37:58.107Z,16.94
2017-07-25T03:38:57.790Z,16.93
2017-07-25T03:39:57.799Z,16.93
2017-07-25T03:40:57.750Z,16.94
2017-07-25T03:41:57.784Z,16.9
2017-07-25T03:42:58.031Z,16.9
2017-07-25T03:43:57.388Z,16.96
2017-07-25T03:44:57.682Z,16.97
2017-07-25T03:45:57.980Z,16.96
2017-07-25T03:46:57.958Z,16.94
2017-07-25T03:47:57.639Z,16.97
2017-07-25T03:48:57.314Z,16.98
2017-07-25T03:49:57.612Z,16.98
2017-07-25T03:50:57.607Z,16.93
2017-07-25T03:51:57.868Z,17.01
2017-07-25T03:52:57.570Z,17.06
2017-07-25T03:53:57.550Z,17.05
2017-07-25T03:54:57.840Z,17.06
2017-07-25T03:55:57.509Z,16.94
2017-07-25T03:56:57.805Z,17.03
2017-07-25T03:57:57.772Z,17
2017-07-25T03:58:57.777Z,17.03
2017-07-25T03:59:57.759Z,17.05
2017-07-25T04:00:57.744Z,17.05
2017-07-25T04:01:57.434Z,17.08
2017-07-25T04:02:57.699Z,17.03
2017-07-25T04:03:57.678Z,17.08
2017-07-25T04:04:57.665Z,17.03
2017-07-25T04:05:57.670Z,17.03
2017-07-25T04:06:57.654Z,16.94
2017-07-25T04:07:57.628Z,17.08
2017-07-25T04:08:57.601Z,16.97
2017-07-25T04:09:57.587Z,16.93
2017-07-25T04:10:57.570Z,16.97
2017-07-25T04:11:57.561Z,17.01
2017-07-25T04:12:57.560Z,17.05
2017-07-25T04:13:57.200Z,17.11
2017-07-25T04:14:57.518Z,17.15
2017-07-25T04:15:57.489Z,17.11
2017-07-25T04:16:57.159Z,17.09
2017-07-25T04:17:57.441Z,17.16
2017-07-25T04:18:57.126Z,17.14
2017-07-25T04:19:57.110Z,17.08
2017-07-25T04:20:57.433Z,17.12
2017-07-25T04:21:57.389Z,17.11
2017-07-25T04:22:57.059Z,17.18
2017-07-25T04:23:57.042Z,17.15
2017-07-25T04:24:57.029Z,17.24
2017-07-25T04:25:57.319Z,17.15
2017-07-25T04:26:56.705Z,17.21
2017-07-25T04:27:56.979Z,17.15
2017-07-25T04:28:57.271Z,17.22
2017-07-25T04:29:57.259Z,17.24
2017-07-25T04:30:57.238Z,17.27
2017-07-25T04:31:57.230Z,17.27
2017-07-25T04:32:57.037Z,17.19
2017-07-25T04:33:56.876Z,17.18
2017-07-25T04:34:57.170Z,17.24
2017-07-25T04:35:57.160Z,17.14
2017-07-25T04:36:57.150Z,17.19
2017-07-25T04:37:57.119Z,17.19
2017-07-25T04:38:57.110Z,17.16
2017-07-25T04:39:56.806Z,17.21
2017-07-25T04:40:56.861Z,17.21
2017-07-25T04:41:56.754Z,17.29
2017-07-25T04:42:57.038Z,17.22
2017-07-25T04:43:56.733Z,17.34
2017-07-25T04:44:56.699Z,17.33
2017-07-25T04:45:56.708Z,17.27
2017-07-25T04:46:56.677Z,17.36
2017-07-25T04:47:56.958Z,17.33
2017-07-25T04:48:56.650Z,17.29
2017-07-25T04:49:56.931Z,17.29
2017-07-25T04:50:56.602Z,17.33
2017-07-25T04:51:56.900Z,17.27
2017-07-25T04:52:56.576Z,17.3
2017-07-25T04:53:56.569Z,17.29
2017-07-25T04:54:56.539Z,17.27
2017-07-25T04:55:56.829Z,17.3
2017-07-25T04:56:56.819Z,17.36
2017-07-25T04:57:56.801Z,17.31
2017-07-25T04:58:56.780Z,17.4
2017-07-25T04:59:56.455Z,17.34
2017-07-25T05:00:56.759Z,17.36
2017-07-25T05:01:56.119Z,17.39
2017-07-25T05:02:56.409Z,17.44
2017-07-25T05:03:56.718Z,17.4
2017-07-25T05:04:56.383Z,17.33
2017-07-25T05:05:56.674Z,17.39
2017-07-25T05:06:56.668Z,17.4
2017-07-25T05:07:56.649Z,17.34
2017-07-25T05:08:56.629Z,17.39
2017-07-25T05:09:56.607Z,17.36
2017-07-25T05:10:56.289Z,17.39
2017-07-25T05:11:56.568Z,17.42
2017-07-25T05:12:56.251Z,17.4
2017-07-25T05:13:56.549Z,17.46
2017-07-25T05:14:56.221Z,17.4
2017-07-25T05:15:56.518Z,17.33
2017-07-25T05:16:56.511Z,17.4
2017-07-25T05:17:56.486Z,17.45
2017-07-25T05:18:56.459Z,17.45
2017-07-25T05:19:56.158Z,17.31
2017-07-25T05:20:56.430Z,17.31
2017-07-25T05:21:56.419Z,17.29
2017-07-25T05:22:56.399Z,17.36
2017-07-25T05:23:56.379Z,17.33
2017-07-25T05:24:56.370Z,17.45
2017-07-25T05:25:56.043Z,17.44
2017-07-25T05:26:56.332Z,17.51
2017-07-25T05:27:56.319Z,17.31
2017-07-25T05:28:56.299Z,17.46
2017-07-25T05:29:55.668Z,17.44
2017-07-25T05:30:55.980Z,17.42
2017-07-25T05:31:55.971Z,17.33
2017-07-25T05:32:55.934Z,17.3
2017-07-25T05:33:56.215Z,17.33
2017-07-25T05:34:55.899Z,17.3
2017-07-25T05:35:55.880Z,17.31
2017-07-25T05:36:56.179Z,17.29
2017-07-25T05:37:56.157Z,17.34
2017-07-25T05:38:55.859Z,17.36
2017-07-25T05:39:55.830Z,17.3
2017-07-25T05:40:56.188Z,17.31
2017-07-25T05:41:55.795Z,17.34
2017-07-25T05:42:56.187Z,17.4
2017-07-25T05:43:56.058Z,17.3
2017-07-25T05:44:55.736Z,17.31
2017-07-25T05:45:55.717Z,17.33
2017-07-25T05:46:55.445Z,17.45
2017-07-25T05:47:55.998Z,17.44
2017-07-25T05:48:55.991Z,17.44
2017-07-25T05:49:55.970Z,17.39
2017-07-25T05:50:55.729Z,17.44
2017-07-25T05:51:55.930Z,17.46
2017-07-25T05:52:55.619Z,17.44
2017-07-25T05:53:55.603Z,17.48
2017-07-25T05:54:55.659Z,17.44
2017-07-25T05:55:55.560Z,17.45
2017-07-25T05:56:55.869Z,17.44
2017-07-25T05:57:55.529Z,17.44
2017-07-25T05:58:55.570Z,17.42
2017-07-25T05:59:55.489Z,17.45
2017-07-25T06:00:55.838Z,17.44
2017-07-25T06:01:55.478Z,17.34
2017-07-25T06:02:55.468Z,17.33
2017-07-25T06:03:55.430Z,17.31
2017-07-25T06:04:55.467Z,17.3
2017-07-25T06:05:55.768Z,17.34
2017-07-25T06:06:55.709Z,17.33
2017-07-25T06:07:55.368Z,17.33
2017-07-25T06:08:55.388Z,17.31
2017-07-25T06:09:55.679Z,17.31
2017-07-25T06:10:55.321Z,17.33
2017-07-25T06:11:55.309Z,17.36
2017-07-25T06:12:55.349Z,17.19
2017-07-25T06:13:55.334Z,17.16
2017-07-25T06:14:55.569Z,17.15
2017-07-25T06:15:55.258Z,17.19
2017-07-25T06:16:54.925Z,17.14
2017-07-25T06:17:55.220Z,17.19
2017-07-25T06:18:55.195Z,17.08
2017-07-25T06:19:55.482Z,17.08
2017-07-25T06:20:55.201Z,17.24
2017-07-25T06:21:55.457Z,17.19
2017-07-25T06:22:55.143Z,17.16
2017-07-25T06:23:55.418Z,17.21
2017-07-25T06:24:55.399Z,17.31
2017-07-25T06:25:55.141Z,17.21
2017-07-25T06:26:55.383Z,17.19
2017-07-25T06:27:55.141Z,17.33
2017-07-25T06:28:55.041Z,17.21
2017-07-25T06:29:54.709Z,17.18
2017-07-25T06:30:55.336Z,17.3
2017-07-25T06:31:54.683Z,17.16
2017-07-25T06:32:55.271Z,17.16
2017-07-25T06:33:55.271Z,17.24
2017-07-25T06:34:55.277Z,17.22
2017-07-25T06:35:55.238Z,17.24
2017-07-25T06:36:55.210Z,17.33
2017-07-25T06:37:55.192Z,17.22
2017-07-25T06:38:54.877Z,17.06
2017-07-25T06:39:55.170Z,17.06
2017-07-25T06:40:55.151Z,17.18
2017-07-25T06:41:55.130Z,17.15
2017-07-25T06:42:55.109Z,17.15
2017-07-25T06:43:54.789Z,17.18
2017-07-25T06:44:55.100Z,17.22
2017-07-25T06:45:54.750Z,17.21
2017-07-25T06:46:54.749Z,17.21
2017-07-25T06:47:55.038Z,17.15
2017-07-25T06:48:54.709Z,17.12
2017-07-25T06:49:54.700Z,17.19
2017-07-25T06:50:54.980Z,17.15
2017-07-25T06:51:54.660Z,17.09
2017-07-25T06:52:54.959Z,17.14
2017-07-25T06:53:54.926Z,17.12
2017-07-25T06:54:54.922Z,17.14
2017-07-25T06:55:54.908Z,17.14
2017-07-25T06:56:54.910Z,17.14
2017-07-25T06:57:54.250Z,17.22
2017-07-25T06:58:54.547Z,17.12
2017-07-25T06:59:54.838Z,17.14
2017-07-25T07:00:54.809Z,17.19
2017-07-25T07:01:54.798Z,17.21
2017-07-25T07:02:54.816Z,17.16
2017-07-25T07:03:54.799Z,17.06
2017-07-25T07:04:54.759Z,17.15
2017-07-25T07:05:54.739Z,17.06
2017-07-25T07:06:54.720Z,17.16
2017-07-25T07:07:54.719Z,17.12
2017-07-25T07:08:54.699Z,17.15
2017-07-25T07:09:54.379Z,17.24
2017-07-25T07:10:54.049Z,17.19
2017-07-25T07:11:54.330Z,17.26
2017-07-25T07:12:54.319Z,17.08
2017-07-25T07:13:54.299Z,17.05
2017-07-25T07:14:54.600Z,17.15
2017-07-25T07:15:54.278Z,17.12
2017-07-25T07:16:54.556Z,17.19
2017-07-25T07:17:53.941Z,17.21
2017-07-25T07:18:54.222Z,17.15
2017-07-25T07:19:54.208Z,17.14
2017-07-25T07:20:54.201Z,17.19
2017-07-25T07:21:53.859Z,17.19
2017-07-25T07:22:54.469Z,17.19
2017-07-25T07:23:54.441Z,17.18
2017-07-25T07:24:54.124Z,17.22
2017-07-25T07:25:54.118Z,17.14
2017-07-25T07:26:54.092Z,17.15
2017-07-25T07:27:53.770Z,17.31
2017-07-25T07:28:54.060Z,17.21
2017-07-25T07:29:54.358Z,17.19
2017-07-25T07:30:54.327Z,17.18
2017-07-25T07:31:54.333Z,17.26
2017-07-25T07:32:54.321Z,17.19
2017-07-25T07:33:53.990Z,17.33
2017-07-25T07:34:54.267Z,17.3
2017-07-25T07:35:54.258Z,17.34
2017-07-25T07:36:53.934Z,17.27
2017-07-25T07:37:54.224Z,17.34
2017-07-25T07:38:54.224Z,17.33
2017-07-25T07:39:53.888Z,17.4
2017-07-25T07:40:53.869Z,17.33
2017-07-25T07:41:54.163Z,17.33
2017-07-25T07:42:54.142Z,17.34
2017-07-25T07:43:54.128Z,17.45
2017-07-25T07:44:54.111Z,17.46
2017-07-25T07:45:54.097Z,17.54
2017-07-25T07:46:54.089Z,17.55
2017-07-25T07:47:54.062Z,17.54
2017-07-25T07:48:54.051Z,17.64
2017-07-25T07:49:53.768Z,17.62
2017-07-25T07:50:54.020Z,17.64
2017-07-25T07:51:53.389Z,17.7
2017-07-25T07:52:53.987Z,17.83
2017-07-25T07:53:53.980Z,17.82
2017-07-25T07:54:53.946Z,17.86
2017-07-25T07:55:53.683Z,17.85
2017-07-25T07:56:53.925Z,17.86
2017-07-25T07:57:53.907Z,17.83
2017-07-25T07:58:53.888Z,17.82
2017-07-25T07:59:53.568Z,17.77
2017-07-25T08:00:53.895Z,17.78
2017-07-25T08:01:53.567Z,17.86
2017-07-25T08:02:53.850Z,17.93
2017-07-25T08:03:53.858Z,17.82
2017-07-25T08:04:53.879Z,17.9
2017-07-25T08:05:53.494Z,17.86
2017-07-25T08:06:53.788Z,17.8
2017-07-25T08:07:53.470Z,17.83
2017-07-25T08:08:53.859Z,17.78
2017-07-25T08:09:53.120Z,17.96
2017-07-25T08:10:53.709Z,18.01
2017-07-25T08:11:53.758Z,18.01
2017-07-25T08:12:53.679Z,17.96
2017-07-25T08:13:53.671Z,18.01
2017-07-25T08:14:53.033Z,18.12
2017-07-25T08:15:53.662Z,18.14
2017-07-25T08:16:53.368Z,18.22
2017-07-25T08:17:53.658Z,18.22
2017-07-25T08:18:52.966Z,18.23
2017-07-25T08:19:53.598Z,18.3
2017-07-25T08:20:52.939Z,18.32
2017-07-25T08:21:53.539Z,18.35
2017-07-25T08:22:53.209Z,18.4
2017-07-25T08:23:53.559Z,18.41
2017-07-25T08:24:53.510Z,18.51
2017-07-25T08:25:53.220Z,18.38
2017-07-25T08:26:53.463Z,18.47
2017-07-25T08:27:53.440Z,18.45
2017-07-25T08:28:53.130Z,18.48
2017-07-25T08:29:53.423Z,18.45
2017-07-25T08:30:53.409Z,18.48
2017-07-25T08:31:53.434Z,18.48
2017-07-25T08:32:53.147Z,18.42
2017-07-25T08:33:53.039Z,18.48
2017-07-25T08:34:53.347Z,18.44
2017-07-25T08:35:53.033Z,18.47
2017-07-25T08:36:53.047Z,18.51
2017-07-25T08:37:53.001Z,18.52
2017-07-25T08:38:53.331Z,18.47
2017-07-25T08:39:53.268Z,18.55
2017-07-25T08:40:52.954Z,18.55
2017-07-25T08:41:52.933Z,18.55
2017-07-25T08:42:52.947Z,18.6
2017-07-25T08:43:52.902Z,18.66
2017-07-25T08:44:53.188Z,18.6
2017-07-25T08:45:53.224Z,18.62
2017-07-25T08:46:52.854Z,18.59
2017-07-25T08:47:52.840Z,18.65
2017-07-25T08:48:52.824Z,18.63
2017-07-25T08:49:53.119Z,18.63
2017-07-25T08:50:53.109Z,18.65
2017-07-25T08:51:52.784Z,18.66
2017-07-25T08:52:53.067Z,18.59
2017-07-25T08:53:53.056Z,18.47
2017-07-25T08:54:52.737Z,18.5
2017-07-25T08:55:53.030Z,18.55
2017-07-25T08:56:53.018Z,18.5
2017-07-25T08:57:53.009Z,18.47
2017-07-25T08:58:52.990Z,18.6
2017-07-25T08:59:52.985Z,18.55
2017-07-25T09:00:52.653Z,18.55
2017-07-25T09:01:52.957Z,18.56
2017-07-25T09:02:52.917Z,18.6
2017-07-25T09:03:52.598Z,18.63
2017-07-25T09:04:52.900Z,18.67
2017-07-25T09:05:52.879Z,18.65
2017-07-25T09:06:52.871Z,18.73
2017-07-25T09:07:52.859Z,18.73
2017-07-25T09:08:52.858Z,18.7
2017-07-25T09:09:52.820Z,18.77
2017-07-25T09:10:52.813Z,18.7
2017-07-25T09:11:52.791Z,18.62
2017-07-25T09:12:52.771Z,18.62
2017-07-25T09:13:52.786Z,18.63
2017-07-25T09:14:52.755Z,18.7
2017-07-25T09:15:52.415Z,18.78
2017-07-25T09:16:52.715Z,18.78
2017-07-25T09:17:52.399Z,18.84
2017-07-25T09:18:52.689Z,18.81
2017-07-25T09:19:52.359Z,18.88
2017-07-25T09:20:52.663Z,18.92
2017-07-25T09:21:52.634Z,18.92
2017-07-25T09:22:52.312Z,18.85
2017-07-25T09:23:52.617Z,18.88
2017-07-25T09:24:52.600Z,18.88
2017-07-25T09:25:52.581Z,18.82
2017-07-25T09:26:52.584Z,18.85
2017-07-25T09:27:52.249Z,18.85
2017-07-25T09:28:52.219Z,18.7
2017-07-25T09:29:52.529Z,18.63
2017-07-25T09:30:52.519Z,18.73
2017-07-25T09:31:52.193Z,18.78
2017-07-25T09:32:52.177Z,18.75
2017-07-25T09:33:52.467Z,18.75
2017-07-25T09:34:52.468Z,18.74
2017-07-25T09:35:52.427Z,18.82
2017-07-25T09:36:52.413Z,18.77
2017-07-25T09:37:52.408Z,18.8
2017-07-25T09:38:52.387Z,18.77
2017-07-25T09:39:52.368Z,18.8
2017-07-25T09:40:52.366Z,18.9
2017-07-25T09:41:52.350Z,18.92
2017-07-25T09:42:52.341Z,18.77
2017-07-25T09:43:52.318Z,18.74
2017-07-25T09:44:52.297Z,18.73
2017-07-25T09:45:51.969Z,18.73
2017-07-25T09:46:52.295Z,18.8
2017-07-25T09:47:51.946Z,18.82
2017-07-25T09:48:52.258Z,18.82
2017-07-25T09:49:51.907Z,18.84
2017-07-25T09:50:52.017Z,18.82
2017-07-25T09:51:52.205Z,18.78
2017-07-25T09:52:51.872Z,18.84
2017-07-25T09:53:52.158Z,18.92
2017-07-25T09:54:52.165Z,18.97
2017-07-25T09:55:52.132Z,18.92
2017-07-25T09:56:51.635Z,18.96
2017-07-25T09:57:52.107Z,18.85
2017-07-25T09:58:51.789Z,18.82
2017-07-25T09:59:52.073Z,18.85
2017-07-25T10:00:52.144Z,18.82
2017-07-25T10:01:51.747Z,18.78
2017-07-25T10:02:51.807Z,18.9
2017-07-25T10:03:52.033Z,18.87
2017-07-25T10:04:51.788Z,18.78
2017-07-25T10:05:52.015Z,18.77
2017-07-25T10:06:51.666Z,18.9
2017-07-25T10:07:51.654Z,18.75
2017-07-25T10:08:51.697Z,18.82
2017-07-25T10:09:52.038Z,18.77
2017-07-25T10:10:51.700Z,18.77
2017-07-25T10:11:51.967Z,18.78
2017-07-25T10:12:51.885Z,18.7
2017-07-25T10:13:51.908Z,18.81
2017-07-25T10:14:51.669Z,18.75
2017-07-25T10:15:51.618Z,18.81
2017-07-25T10:16:51.817Z,18.65
2017-07-25T10:17:51.570Z,18.69
2017-07-25T10:18:51.836Z,18.67
2017-07-25T10:19:51.788Z,18.67
2017-07-25T10:20:51.856Z,18.63
2017-07-25T10:21:51.749Z,18.67
2017-07-25T10:22:51.798Z,18.7
2017-07-25T10:23:51.739Z,18.73
2017-07-25T10:24:51.426Z,18.74
2017-07-25T10:25:51.375Z,18.75
2017-07-25T10:26:51.366Z,18.67
2017-07-25T10:27:51.051Z,18.65
2017-07-25T10:28:51.660Z,18.69
2017-07-25T10:29:51.688Z,18.65
2017-07-25T10:30:51.669Z,18.73
2017-07-25T10:31:51.599Z,18.73
2017-07-25T10:32:51.605Z,18.78
2017-07-25T10:33:51.577Z,18.78
2017-07-25T10:34:51.569Z,18.8
2017-07-25T10:35:51.548Z,18.85
2017-07-25T10:36:51.630Z,18.9
2017-07-25T10:37:51.511Z,18.84
2017-07-25T10:38:51.506Z,18.93
2017-07-25T10:39:51.488Z,18.97
2017-07-25T10:40:51.467Z,18.92
2017-07-25T10:41:51.473Z,18.96
2017-07-25T10:42:51.517Z,18.97
2017-07-25T10:43:51.429Z,18.99
2017-07-25T10:44:51.396Z,18.99
2017-07-25T10:45:51.397Z,18.96
2017-07-25T10:46:51.386Z,19.06
2017-07-25T10:47:51.409Z,19.16
2017-07-25T10:48:51.375Z,19.08
2017-07-25T10:49:51.354Z,19.15
2017-07-25T10:50:51.329Z,19.19
2017-07-25T10:51:50.697Z,19.26
2017-07-25T10:52:51.296Z,19.15
2017-07-25T10:53:51.298Z,19.21
2017-07-25T10:54:51.256Z,19.26
2017-07-25T10:55:51.255Z,19.22
2017-07-25T10:56:50.923Z,19.21
2017-07-25T10:57:50.926Z,19.22
2017-07-25T10:58:51.198Z,19.21
2017-07-25T10:59:51.195Z,19.16
2017-07-25T11:00:50.905Z,19.21
2017-07-25T11:01:51.158Z,19.11
2017-07-25T11:02:51.146Z,19.06
2017-07-25T11:03:51.145Z,19.06
2017-07-25T11:04:51.129Z,19.04
2017-07-25T11:05:50.803Z,18.99
2017-07-25T11:06:51.098Z,18.97
2017-07-25T11:07:51.098Z,18.88
2017-07-25T11:08:51.087Z,18.85
2017-07-25T11:09:50.736Z,18.87
2017-07-25T11:10:51.027Z,18.84
2017-07-25T11:11:51.006Z,18.85
2017-07-25T11:12:50.996Z,18.88
2017-07-25T11:13:50.676Z,18.96
2017-07-25T11:14:50.656Z,18.97
2017-07-25T11:15:50.946Z,18.97
2017-07-25T11:16:50.331Z,19
2017-07-25T11:17:51.001Z,18.97
2017-07-25T11:18:50.909Z,18.93
2017-07-25T11:19:50.591Z,18.96
2017-07-25T11:20:50.896Z,19.11
2017-07-25T11:21:50.557Z,19.07
2017-07-25T11:22:50.847Z,19.12
2017-07-25T11:23:50.528Z,19.21
2017-07-25T11:24:50.827Z,19.15
2017-07-25T11:25:50.817Z,19.19
2017-07-25T11:26:50.796Z,19.34
2017-07-25T11:27:50.798Z,19.37
2017-07-25T11:28:50.762Z,19.41
2017-07-25T11:29:50.478Z,19.52
2017-07-25T11:30:50.727Z,19.55
2017-07-25T11:31:50.409Z,19.58
2017-07-25T11:32:50.435Z,19.61
2017-07-25T11:33:50.418Z,19.71
2017-07-25T11:34:50.697Z,19.83
2017-07-25T11:35:50.660Z,19.88
2017-07-25T11:36:50.360Z,19.95
2017-07-25T11:37:50.635Z,19.89
2017-07-25T11:38:50.639Z,19.89
2017-07-25T11:39:50.628Z,19.91
2017-07-25T11:40:50.599Z,19.96
2017-07-25T11:41:50.696Z,19.98
2017-07-25T11:42:50.579Z,20.14
2017-07-25T11:43:50.577Z,19.95
2017-07-25T11:44:50.560Z,19.95
2017-07-25T11:45:50.538Z,19.96
2017-07-25T11:46:50.535Z,19.92
2017-07-25T11:47:50.571Z,19.99
2017-07-25T11:48:50.499Z,20.04
2017-07-25T11:49:50.515Z,19.92
2017-07-25T11:50:50.468Z,19.8
2017-07-25T11:51:50.457Z,19.78
2017-07-25T11:52:50.438Z,19.88
2017-07-25T11:53:50.438Z,19.93
2017-07-25T11:54:50.413Z,19.96
2017-07-25T11:55:50.108Z,20.07
2017-07-25T11:56:50.397Z,20.14
2017-07-25T11:57:50.422Z,20.16
2017-07-25T11:58:50.367Z,20.22
2017-07-25T11:59:50.357Z,20.32
2017-07-25T12:00:50.353Z,20.36
2017-07-25T12:01:50.328Z,20.41
2017-07-25T12:02:50.299Z,20.4
2017-07-25T12:03:50.339Z,20.4
2017-07-25T12:04:50.302Z,20.44
2017-07-25T12:05:50.311Z,20.4
2017-07-25T12:06:49.954Z,20.31
2017-07-25T12:07:49.927Z,20.38
2017-07-25T12:08:50.219Z,20.35
2017-07-25T12:09:49.894Z,20.29
2017-07-25T12:10:49.898Z,20.22
2017-07-25T12:11:49.870Z,20.06
2017-07-25T12:12:50.219Z,19.96
2017-07-25T12:13:50.163Z,20.06
2017-07-25T12:14:50.139Z,19.91
2017-07-25T12:15:49.829Z,19.91
2017-07-25T12:16:49.811Z,19.78
2017-07-25T12:17:50.097Z,19.8
2017-07-25T12:18:50.119Z,19.81
2017-07-25T12:19:49.766Z,19.89
2017-07-25T12:20:50.056Z,19.96
2017-07-25T12:21:50.048Z,19.95
2017-07-25T12:22:50.046Z,19.91
2017-07-25T12:23:50.026Z,19.93
2017-07-25T12:24:50.003Z,19.95
2017-07-25T12:25:49.987Z,19.99
2017-07-25T12:26:49.979Z,20.06
2017-07-25T12:27:49.966Z,20.07
2017-07-25T12:28:49.987Z,19.99
2017-07-25T12:29:49.625Z,20.16
2017-07-25T12:30:49.923Z,20.16
2017-07-25T12:31:49.907Z,20.01
2017-07-25T12:32:49.891Z,19.96
2017-07-25T12:33:49.889Z,19.95
2017-07-25T12:34:49.868Z,20.07
2017-07-25T12:35:49.851Z,20.08
2017-07-25T12:36:49.535Z,20.01
2017-07-25T12:37:49.828Z,20.08
2017-07-25T12:38:49.498Z,20.08
2017-07-25T12:39:49.797Z,20.18
2017-07-25T12:40:49.799Z,20.14
2017-07-25T12:41:49.765Z,20.08
2017-07-25T12:42:49.752Z,20.08
2017-07-25T12:43:49.759Z,20.07
2017-07-25T12:44:49.416Z,20.13
2017-07-25T12:45:49.731Z,20.01
2017-07-25T12:46:49.705Z,20.1
2017-07-25T12:47:49.688Z,20.18
2017-07-25T12:48:49.380Z,20.25
2017-07-25T12:49:49.423Z,20.44
2017-07-25T12:50:49.350Z,20.31
2017-07-25T12:51:49.025Z,20.47
2017-07-25T12:52:49.310Z,20.33
2017-07-25T12:53:49.627Z,20.33
2017-07-25T12:54:49.593Z,20.33